Time;durP1;ratioP1;P1;durP2;ratioP2;P2;SDS_P1;SDS_P2;PMS_P1;PMS_P2;Temp;Humidity;BMP_temperature;BMP_pressure;BME280_temperature;BME280_humidity;BME280_pressure;Samples;Min_cycle;Max_cycle;Signal;HPM_P1;HPM_P2
2022/01/13 00:00:34;;;;;;;7.85;6.80;;;;;;;18.25;35.33;102910.06;5012295;28;20533;-75
2022/01/13 00:03:02;;;;;;;9.23;7.00;;;;;;;18.27;35.06;102905.47;5013874;28;20042;-75
2022/01/13 00:05:31;;;;;;;8.25;6.70;;;;;;;18.26;34.97;102922.53;5013873;28;20049;-74
2022/01/13 00:07:59;;;;;;;9.13;6.70;;;;;;;18.27;34.91;102922.47;5013693;28;20054;-75
2022/01/13 00:10:27;;;;;;;9.18;6.63;;;;;;;18.29;34.93;102930.41;5013691;28;20053;-75
2022/01/13 00:13:03;;;;;;;8.90;6.38;;;;;;;18.31;34.77;102938.38;5012758;28;20050;-75
2022/01/13 00:18:14;;;;;;;8.88;6.32;;;;;;;18.32;34.91;102937.47;5014203;28;20482;-75
2022/01/13 00:26:21;;;;;;;10.55;6.75;;;;;;;18.32;34.83;102934.78;5013870;28;20049;-75
2022/01/13 00:28:51;;;;;;;9.63;6.75;;;;;;;18.31;34.98;102933.91;5013869;28;20042;-75
2022/01/13 00:31:28;;;;;;;9.90;6.68;;;;;;;18.31;34.91;102933.91;5014265;28;20042;-75
2022/01/13 00:33:58;;;;;;;9.85;7.10;;;;;;;18.31;35.02;102939.28;5013693;28;20053;-75
2022/01/13 00:36:27;;;;;;;8.63;6.15;;;;;;;18.31;35.02;102939.28;5012062;28;20106;-75
2022/01/13 00:38:56;;;;;;;7.75;6.43;;;;;;;18.31;34.97;102943.75;5013325;28;20045;-75
2022/01/13 00:41:27;;;;;;;8.75;6.30;;;;;;;18.31;34.99;102946.41;5013254;28;20045;-75
2022/01/13 00:43:56;;;;;;;9.32;6.10;;;;;;;18.31;34.92;102938.38;5014142;28;20050;-75
2022/01/13 00:46:27;;;;;;;7.63;6.32;;;;;;;18.29;35.17;102933.97;5012665;28;20474;-76
2022/01/13 00:48:55;;;;;;;7.40;6.60;;;;;;;18.29;34.90;102935.78;5013574;28;20482;-75
2022/01/13 00:51:24;;;;;;;7.53;6.32;;;;;;;18.28;34.85;102945.66;5013163;28;20042;-75
2022/01/13 00:53:52;;;;;;;9.05;6.28;;;;;;;18.29;34.73;102946.50;5013560;28;20402;-75
2022/01/13 00:56:21;;;;;;;8.05;5.63;;;;;;;18.28;34.96;102948.31;5012206;28;20042;-75
2022/01/13 00:58:48;;;;;;;8.32;6.43;;;;;;;18.28;34.80;102951.00;5011631;28;20056;-76
2022/01/13 01:01:15;;;;;;;7.97;6.15;;;;;;;18.28;34.71;102950.16;5013177;28;20046;-75
2022/01/13 01:03:43;;;;;;;8.48;6.78;;;;;;;18.26;34.85;102958.25;5013321;28;20429;-75
2022/01/13 01:06:10;;;;;;;9.38;7.07;;;;;;;18.27;34.88;102973.41;5013017;28;20045;-75
2022/01/13 01:08:38;;;;;;;8.02;5.72;;;;;;;18.26;34.62;102973.47;5012648;28;20057;-75
2022/01/13 01:11:06;;;;;;;6.70;5.70;;;;;;;18.26;34.87;102978.81;5013556;28;20474;-75
2022/01/13 01:13:35;;;;;;;7.38;6.40;;;;;;;18.25;34.39;102988.69;5013791;28;20057;-75
2022/01/13 01:16:07;;;;;;;8.75;5.50;;;;;;;18.26;34.65;102987.72;5012788;28;20050;-75
2022/01/13 01:18:53;;;;;;;7.03;6.15;;;;;;;18.26;34.58;102990.41;5012436;28;20370;-75
2022/01/13 01:26:43;;;;;;;7.53;6.07;;;;;;;18.25;34.48;103001.22;5015770;28;20057;-75
2022/01/13 01:29:25;;;;;;;6.72;5.93;;;;;;;18.26;34.46;103014.53;5017250;28;20049;-75
2022/01/13 01:31:54;;;;;;;7.82;5.85;;;;;;;18.26;34.27;103017.22;5017051;28;20072;-75
2022/01/13 01:36:56;;;;;;;7.95;6.47;;;;;;;18.26;34.37;103030.63;5016996;28;20049;-75
2022/01/13 01:39:24;;;;;;;7.32;5.75;;;;;;;18.26;34.40;103035.13;5016541;28;20042;-75
2022/01/13 01:41:56;;;;;;;7.55;5.88;;;;;;;18.25;34.46;103028.91;5017005;28;20042;-75
2022/01/13 01:44:33;;;;;;;6.60;5.50;;;;;;;18.25;34.36;103020.84;5016751;28;20072;-75
2022/01/13 01:47:00;;;;;;;8.82;6.30;;;;;;;18.25;34.38;103025.34;5015513;28;20053;-75
2022/01/13 01:49:30;;;;;;;6.20;5.60;;;;;;;18.23;34.40;103033.47;5016264;28;20052;-75
2022/01/13 01:52:01;;;;;;;8.15;6.30;;;;;;;18.24;34.46;103028.97;5016359;28;20046;-75
2022/01/13 01:54:29;;;;;;;7.05;6.35;;;;;;;18.23;34.37;103030.81;5017000;28;20045;-75
2022/01/13 01:56:57;;;;;;;7.45;5.95;;;;;;;18.23;34.37;103032.59;5016139;28;20153;-75
2022/01/13 01:59:29;;;;;;;6.95;5.80;;;;;;;18.23;34.50;103038.84;5015057;28;20494;-75
2022/01/13 02:01:58;;;;;;;7.18;5.85;;;;;;;18.22;34.40;103030.84;5015514;28;20054;-75
2022/01/13 02:04:26;;;;;;;7.03;5.82;;;;;;;18.21;34.48;103023.75;5014745;28;20045;-75
2022/01/13 02:06:55;;;;;;;7.35;5.50;;;;;;;18.20;34.41;103028.25;5014855;28;20046;-75
2022/01/13 02:09:23;;;;;;;6.25;5.57;;;;;;;18.19;34.38;103029.19;5016568;28;20046;-75
2022/01/13 02:11:55;;;;;;;6.85;5.82;;;;;;;18.19;34.52;103021.16;5016434;28;20363;-75
2022/01/13 02:17:07;;;;;;;6.68;5.63;;;;;;;18.18;34.32;103027.44;5015565;28;20069;-75
2022/01/13 02:19:42;;;;;;;7.30;5.47;;;;;;;18.18;34.61;103026.56;5014128;28;20062;-75
2022/01/13 02:22:10;;;;;;;6.20;5.60;;;;;;;18.18;34.47;103032.78;4999504;28;20057;-75
2022/01/13 02:24:37;;;;;;;7.15;6.35;;;;;;;18.17;34.42;103035.56;5015657;28;20054;-75
2022/01/13 02:27:06;;;;;;;7.10;5.35;;;;;;;18.17;34.47;103038.25;5016146;28;20046;-75
2022/01/13 02:29:34;;;;;;;7.03;6.13;;;;;;;18.17;34.50;103043.59;5016392;28;20367;-75
2022/01/13 02:32:04;;;;;;;6.53;5.28;;;;;;;18.16;34.52;103037.38;5013723;28;20049;-75
2022/01/13 02:34:31;;;;;;;7.30;5.88;;;;;;;18.17;34.72;103049.84;5014429;28;20490;-75
2022/01/13 02:36:59;;;;;;;6.72;5.72;;;;;;;18.16;34.53;103048.09;5015177;28;20073;-75
2022/01/13 02:39:28;;;;;;;6.35;5.35;;;;;;;18.17;34.73;103062.38;5015398;28;20045;-75
2022/01/13 02:41:56;;;;;;;6.07;5.47;;;;;;;18.15;34.85;103059.78;5016076;28;20505;-75
2022/01/13 02:44:25;;;;;;;7.85;5.47;;;;;;;18.15;34.78;103062.44;5015286;28;20041;-75
2022/01/13 02:47:07;;;;;;;8.85;5.95;;;;;;;18.16;34.74;103063.31;5015174;28;20046;-75
2022/01/13 02:49:55;;;;;;;6.20;5.60;;;;;;;18.16;34.83;103058.81;5015210;28;20064;-75
2022/01/13 02:52:22;;;;;;;6.43;5.43;;;;;;;18.15;34.76;103062.44;5015630;28;20054;-76
2022/01/13 02:54:50;;;;;;;7.43;5.88;;;;;;;18.14;34.74;103066.03;5015075;28;20050;-76
2022/01/13 02:57:17;;;;;;;8.30;5.65;;;;;;;18.14;34.94;103066.03;5015033;28;20042;-75
2022/01/13 02:59:44;;;;;;;6.55;4.90;;;;;;;18.13;34.86;103058.97;5014993;28;20053;-75
2022/01/13 03:02:12;;;;;;;6.82;5.47;;;;;;;18.14;34.68;103054.47;5014898;28;20425;-75
2022/01/13 03:04:47;;;;;;;6.47;5.00;;;;;;;18.14;34.69;103059.81;5013285;28;20046;-75
2022/01/13 03:07:15;;;;;;;5.70;4.90;;;;;;;18.13;34.86;103050.91;5014899;28;20477;-75
2022/01/13 03:09:43;;;;;;;6.07;5.43;;;;;;;18.12;34.79;103049.19;5014852;28;20121;-75
2022/01/13 03:12:11;;;;;;;6.28;5.50;;;;;;;18.11;34.82;103050.13;5014833;28;20386;-75
2022/01/13 03:14:39;;;;;;;7.22;5.53;;;;;;;18.12;34.71;103051.84;5014957;28;20056;-75
2022/01/13 03:17:06;;;;;;;7.18;5.13;;;;;;;18.12;34.66;103057.22;5014437;28;20061;-75
2022/01/13 03:19:33;;;;;;;6.47;5.18;;;;;;;18.11;34.67;103058.16;5014663;28;20046;-75
2022/01/13 03:22:02;;;;;;;7.03;5.82;;;;;;;18.10;34.53;103047.50;5015382;28;20049;-76
2022/01/13 03:24:31;;;;;;;8.70;5.82;;;;;;;18.11;34.57;103038.50;5014540;28;20109;-75
2022/01/13 03:27:02;;;;;;;5.90;5.30;;;;;;;18.09;34.71;103046.63;5015067;28;20401;-75
2022/01/13 03:29:30;;;;;;;5.88;5.03;;;;;;;18.10;34.75;103051.03;5015124;28;20042;-75
2022/01/13 03:31:58;;;;;;;5.60;5.00;;;;;;;18.10;34.67;103042.13;5014704;28;20500;-75
2022/01/13 03:34:25;;;;;;;7.65;5.85;;;;;;;18.11;34.65;103033.16;5013171;28;20413;-75
2022/01/13 03:36:53;;;;;;;6.55;5.80;;;;;;;18.11;34.73;103049.22;5014290;28;20477;-75
2022/01/13 03:39:20;;;;;;;6.13;5.30;;;;;;;18.11;34.49;103041.19;5014965;28;20378;-75
2022/01/13 03:41:48;;;;;;;7.82;5.13;;;;;;;18.11;34.69;103039.41;5013641;28;20478;-75
2022/01/13 03:44:27;;;;;;;6.88;5.40;;;;;;;18.11;34.54;103034.03;5014061;28;20046;-75
2022/01/13 03:46:56;;;;;;;6.03;5.00;;;;;;;18.11;34.61;103039.41;5014729;28;20053;-75
2022/01/13 03:49:23;;;;;;;7.90;5.22;;;;;;;18.11;34.90;103049.22;5012954;28;20045;-75
2022/01/13 03:52:02;;;;;;;6.93;5.70;;;;;;;18.10;34.87;103044.81;5013237;28;20041;-76
2022/01/13 03:54:32;;;;;;;6.13;5.20;;;;;;;18.11;34.70;103054.59;5013152;28;20425;-75
2022/01/13 03:57:38;;;;;;;7.10;4.85;;;;;;;18.09;34.74;103052.00;5014508;28;20046;-75
2022/01/13 04:00:45;;;;;;;5.75;5.15;;;;;;;18.10;34.88;103052.84;5013799;28;20053;-75
2022/01/13 04:03:13;;;;;;;7.00;5.55;;;;;;;18.08;34.61;103047.56;5014498;28;20049;-75
2022/01/13 04:06:05;;;;;;;6.05;5.00;;;;;;;18.09;34.85;103057.34;5012512;28;20062;-75
2022/01/13 04:08:32;;;;;;;5.93;4.97;;;;;;;18.09;34.67;103056.50;5013769;28;20402;-76
2022/01/13 04:11:13;;;;;;;6.20;4.78;;;;;;;18.09;34.72;103061.84;5013757;28;20045;-75
2022/01/13 04:13:55;;;;;;;6.30;5.28;;;;;;;18.09;34.81;103061.84;5014105;28;20049;-75
2022/01/13 04:16:27;;;;;;;6.57;5.35;;;;;;;18.08;34.67;103066.34;5014197;28;20061;-75
2022/01/13 04:19:01;;;;;;;6.25;5.18;;;;;;;18.08;35.02;103055.63;5014177;28;20045;-76
2022/01/13 04:21:29;;;;;;;7.70;5.10;;;;;;;18.08;34.81;103062.78;5014107;28;20489;-75
2022/01/13 04:23:57;;;;;;;9.05;6.07;;;;;;;18.07;34.70;103061.03;5012227;28;20046;-75
2022/01/13 04:26:30;;;;;;;6.13;4.88;;;;;;;18.07;34.80;103059.25;5011881;28;20046;-75
2022/01/13 04:31:40;;;;;;;6.97;5.38;;;;;;;18.07;34.65;103055.66;5014253;28;20054;-75
2022/01/13 04:34:08;;;;;;;5.53;4.45;;;;;;;18.06;34.50;103062.84;5013951;28;20358;-75
2022/01/13 04:36:36;;;;;;;7.93;5.13;;;;;;;18.06;34.69;103068.22;5013277;28;20061;-75
2022/01/13 04:39:05;;;;;;;6.15;5.10;;;;;;;18.05;34.56;103071.84;5012366;28;20501;-75
2022/01/13 04:41:35;;;;;;;8.07;4.70;;;;;;;18.06;34.69;103070.03;5013625;28;20477;-75
2022/01/13 04:44:07;;;;;;;7.22;5.43;;;;;;;18.06;34.59;103073.56;5013200;28;20053;-75
2022/01/13 04:46:35;;;;;;;7.30;5.15;;;;;;;18.04;34.74;103075.47;5013889;28;20470;-75
2022/01/13 04:49:04;;;;;;;5.45;4.72;;;;;;;18.05;34.64;103079.88;5013325;28;20045;-76
2022/01/13 04:51:32;;;;;;;6.40;4.70;;;;;;;18.03;34.73;103073.72;5013240;28;20050;-77
2022/01/13 04:53:59;;;;;;;7.10;5.13;;;;;;;18.03;34.68;103079.97;5012043;28;20489;-77
2022/01/13 04:56:30;;;;;;;5.43;4.43;;;;;;;18.02;34.63;103083.56;5013120;28;20489;-74
2022/01/13 04:58:58;;;;;;;5.63;4.57;;;;;;;18.03;34.63;103076.41;5015108;28;20050;-74
2022/01/13 05:01:25;;;;;;;6.53;4.95;;;;;;;18.03;34.54;103082.63;5017802;28;20397;-74
2022/01/13 05:03:53;;;;;;;6.10;5.15;;;;;;;18.02;34.50;103080.00;5017497;28;20041;-75
2022/01/13 05:06:20;;;;;;;7.63;4.53;;;;;;;18.02;34.54;103082.69;5017187;28;20512;-75
2022/01/13 05:08:49;;;;;;;5.30;4.53;;;;;;;18.00;34.71;103080.09;5017141;28;20041;-76
2022/01/13 05:11:17;;;;;;;7.13;4.70;;;;;;;18.00;34.45;103074.72;5016929;28;20050;-75
2022/01/13 05:13:46;;;;;;;5.97;4.72;;;;;;;18.01;34.37;103080.94;5017087;28;20049;-75
2022/01/13 05:17:06;;;;;;;5.43;4.72;;;;;;;18.00;34.49;103089.94;5016904;28;20495;-75
2022/01/13 05:24:11;;;;;;;5.90;4.85;;;;;;;17.98;34.50;103111.44;5017388;28;20050;-75
2022/01/13 05:26:39;;;;;;;6.07;4.88;;;;;;;17.99;34.48;103115.00;5016635;28;20076;-75
2022/01/13 05:29:06;;;;;;;5.65;4.78;;;;;;;17.97;34.67;103123.09;5017212;28;20053;-75
2022/01/13 05:31:33;;;;;;;6.60;4.57;;;;;;;17.98;34.59;103123.97;5017417;28;20052;-75
2022/01/13 05:34:01;;;;;;;5.97;4.72;;;;;;;17.97;34.60;103111.50;5016629;28;20378;-75
2022/01/13 05:36:28;;;;;;;6.43;4.70;;;;;;;17.96;34.39;103126.72;5016710;28;20512;-75
2022/01/13 05:38:55;;;;;;;7.63;4.82;;;;;;;17.96;34.57;103124.03;5015823;28;20049;-75
2022/01/13 05:41:23;;;;;;;6.75;4.53;;;;;;;17.96;34.57;103131.22;5016431;28;20050;-75
2022/01/13 05:43:50;;;;;;;7.35;4.90;;;;;;;17.95;34.49;103124.13;5016465;28;20060;-75
2022/01/13 05:46:17;;;;;;;5.57;4.50;;;;;;;17.95;34.50;103124.13;5016654;28;20513;-75
2022/01/13 05:48:45;;;;;;;5.97;4.70;;;;;;;17.94;34.43;103120.53;5014970;28;20049;-75
2022/01/13 05:51:12;;;;;;;5.53;4.43;;;;;;;17.94;34.40;103127.72;5016395;28;20072;-75
2022/01/13 05:53:40;;;;;;;7.55;4.97;;;;;;;17.94;34.39;103131.25;5016251;28;20050;-75
2022/01/13 05:56:09;;;;;;;6.28;4.55;;;;;;;17.94;34.43;103135.75;5016598;28;20065;-75
2022/01/13 05:58:36;;;;;;;5.75;4.50;;;;;;;17.94;34.56;103141.97;5016419;28;20130;-75
2022/01/13 06:01:04;;;;;;;5.53;4.53;;;;;;;17.93;34.58;103129.53;5016709;28;20042;-75
2022/01/13 06:03:31;;;;;;;5.90;4.80;;;;;;;17.92;34.41;103122.44;5016106;28;20053;-75
2022/01/13 06:05:59;;;;;;;5.97;4.25;;;;;;;17.92;34.53;103119.75;5016279;28;20046;-75
2022/01/13 06:08:26;;;;;;;4.90;4.07;;;;;;;17.91;34.48;103117.16;5014934;28;20057;-75
2022/01/13 06:10:53;;;;;;;6.20;4.30;;;;;;;17.89;34.35;103119.00;5015743;28;20050;-75
2022/01/13 06:13:20;;;;;;;6.13;4.55;;;;;;;17.88;34.45;103144.06;5016626;28;20363;-75
2022/01/13 06:15:48;;;;;;;5.38;4.35;;;;;;;17.87;34.58;103136.97;5014343;28;20054;-75
2022/01/13 06:18:16;;;;;;;6.90;4.15;;;;;;;17.85;34.33;103134.34;5015987;28;20045;-75
2022/01/13 06:20:43;;;;;;;6.07;4.78;;;;;;;17.84;34.40;103132.63;5015809;28;20057;-75
2022/01/13 06:23:11;;;;;;;6.40;4.60;;;;;;;17.84;34.55;103142.47;5014250;28;20050;-75
2022/01/13 06:25:40;;;;;;;5.97;4.82;;;;;;;17.83;34.46;103156.81;5015924;28;20405;-75
2022/01/13 06:28:07;;;;;;;6.82;4.38;;;;;;;17.83;34.40;103162.16;5014407;28;20046;-76
2022/01/13 06:30:41;;;;;;;5.95;4.60;;;;;;;17.82;34.48;103160.41;5016308;28;20072;-75
2022/01/13 06:33:08;;;;;;;6.03;4.45;;;;;;;17.81;34.36;103148.81;5014389;28;20065;-75
2022/01/13 06:35:36;;;;;;;6.43;4.40;;;;;;;17.79;34.33;103156.94;5015832;28;20049;-75
2022/01/13 06:38:04;;;;;;;5.10;4.07;;;;;;;17.80;34.63;103168.50;5015740;28;20042;-75
2022/01/13 06:40:32;;;;;;;8.50;5.85;;;;;;;17.79;34.43;103166.78;5015347;28;20046;-75
2022/01/13 06:42:59;;;;;;;6.22;3.92;;;;;;;17.78;34.32;103176.63;4999164;28;20346;-75
2022/01/13 06:45:26;;;;;;;4.78;4.18;;;;;;;17.78;34.34;103191.81;5013731;28;20058;-75
2022/01/13 06:47:54;;;;;;;5.53;4.65;;;;;;;17.77;34.45;103190.94;5015266;28;20398;-75
2022/01/13 06:50:21;;;;;;;6.38;4.82;;;;;;;17.77;34.35;103195.44;5013448;28;20053;-75
2022/01/13 06:52:49;;;;;;;6.35;4.57;;;;;;;17.75;34.40;103197.31;5015167;28;20049;-75
2022/01/13 06:55:16;;;;;;;5.53;4.53;;;;;;;17.75;34.50;103208.91;5015402;28;20069;-75
2022/01/13 06:57:44;;;;;;;5.68;4.03;;;;;;;17.75;34.40;103211.59;5014966;28;20397;-75
2022/01/13 07:00:11;;;;;;;7.72;4.50;;;;;;;17.74;34.37;103204.50;5015506;28;20046;-75
2022/01/13 07:02:39;;;;;;;7.38;4.55;;;;;;;17.75;34.25;103197.31;5014965;28;20037;-75
2022/01/13 07:05:07;;;;;;;7.50;4.78;;;;;;;17.74;34.34;103206.22;5015550;28;20050;-75
2022/01/13 07:07:36;;;;;;;9.05;4.50;;;;;;;17.75;34.36;103208.03;5015050;28;20050;-75
2022/01/13 07:10:09;;;;;;;5.47;4.00;;;;;;;17.73;34.43;103194.66;5012786;28;20050;-75
2022/01/13 07:12:37;;;;;;;6.07;3.92;;;;;;;17.73;34.16;103191.97;5015027;28;20058;-75
2022/01/13 07:15:06;;;;;;;5.43;4.53;;;;;;;17.74;34.18;103206.22;5015087;28;20094;-76
2022/01/13 07:17:34;;;;;;;7.55;4.43;;;;;;;17.73;34.34;103216.09;5013993;28;20056;-75
2022/01/13 07:20:03;;;;;;;5.32;4.53;;;;;;;17.73;34.25;103217.88;5012990;28;20052;-75
2022/01/13 07:22:30;;;;;;;7.03;4.82;;;;;;;17.74;34.09;103198.19;5013914;28;20050;-75
2022/01/13 07:24:58;;;;;;;5.68;4.60;;;;;;;17.72;34.26;103187.56;5015039;28;20046;-75
2022/01/13 07:27:25;;;;;;;5.22;4.13;;;;;;;17.72;33.92;103187.56;5014989;28;20050;-75
2022/01/13 07:29:53;;;;;;;5.95;4.30;;;;;;;17.72;34.14;103194.72;5014016;28;20394;-75
2022/01/13 07:32:20;;;;;;;4.80;4.28;;;;;;;17.72;34.07;103197.41;5015151;28;20045;-75
2022/01/13 07:34:47;;;;;;;5.97;4.10;;;;;;;17.71;34.15;103201.91;5015092;28;20050;-75
2022/01/13 07:37:15;;;;;;;5.75;4.18;;;;;;;17.71;34.10;103195.66;5013189;28;20042;-76
2022/01/13 07:39:43;;;;;;;5.90;4.45;;;;;;;17.70;34.12;103199.25;5014409;28;20048;-75
2022/01/13 07:42:11;;;;;;;6.15;5.05;;;;;;;17.69;34.45;103214.47;5014751;28;20046;-75
2022/01/13 07:44:39;;;;;;;5.07;4.07;;;;;;;17.68;34.42;103226.13;5012990;28;20065;-75
2022/01/13 07:47:07;;;;;;;7.28;4.50;;;;;;;17.68;34.47;103227.94;5014166;28;20052;-75
2022/01/13 07:49:35;;;;;;;5.25;3.72;;;;;;;17.70;34.39;103226.03;5014664;28;20046;-75
2022/01/13 07:52:03;;;;;;;6.90;4.70;;;;;;;17.68;34.42;103228.81;5012909;28;20093;-75
2022/01/13 07:54:31;;;;;;;5.93;4.55;;;;;;;17.68;34.36;103234.16;5014687;28;20054;-75
2022/01/13 07:57:00;;;;;;;6.05;4.20;;;;;;;17.68;34.23;103235.97;5014023;28;20054;-76
2022/01/13 07:59:29;;;;;;;5.80;4.20;;;;;;;17.68;34.12;103236.84;5011545;28;20062;-78
2022/01/13 08:01:58;;;;;;;8.50;4.53;;;;;;;17.67;34.63;103232.44;4994357;28;20054;-76
2022/01/13 08:04:26;;;;;;;7.13;4.38;;;;;;;17.67;35.20;103237.78;4994146;28;20053;-75
2022/01/13 08:06:53;;;;;;;6.00;4.43;;;;;;;17.67;35.09;103242.28;4994151;28;20053;-75
2022/01/13 08:09:23;;;;;;;7.38;3.88;;;;;;;17.67;35.75;103247.63;5009713;28;20110;-75
2022/01/13 08:11:50;;;;;;;6.45;3.92;;;;;;;17.67;35.69;103245.81;4993044;28;20054;-76
2022/01/13 08:14:18;;;;;;;9.35;4.97;;;;;;;17.67;35.20;103242.28;4994859;28;20045;-75
2022/01/13 08:16:45;;;;;;;5.90;4.18;;;;;;;17.66;34.68;103243.19;5008431;28;20134;-75
2022/01/13 08:21:59;;;;;;;7.68;4.75;;;;;;;17.61;33.90;103243.38;5008716;28;20057;-76
2022/01/13 08:24:27;;;;;;;5.85;4.28;;;;;;;17.60;33.33;103255.03;4994513;28;20046;-76
2022/01/13 08:26:54;;;;;;;7.55;4.88;;;;;;;17.58;32.42;103256.88;5008555;28;20498;-76
2022/01/13 08:29:22;;;;;;;7.60;4.60;;;;;;;17.55;31.82;103255.22;4993587;28;20053;-76
2022/01/13 08:31:49;;;;;;;5.78;4.43;;;;;;;17.54;32.16;103258.84;5009255;28;20054;-76
2022/01/13 08:34:17;;;;;;;8.13;5.28;;;;;;;17.53;31.65;103256.19;4993009;28;20046;-77
2022/01/13 08:36:45;;;;;;;7.38;4.78;;;;;;;17.52;31.09;103260.69;5009271;28;20402;-76
2022/01/13 08:39:13;;;;;;;7.05;5.25;;;;;;;17.51;30.89;103267.00;4993497;28;20410;-77
2022/01/13 08:41:41;;;;;;;5.70;4.80;;;;;;;17.50;30.80;103275.06;4993536;28;20046;-78
2022/01/13 08:44:09;;;;;;;6.85;4.47;;;;;;;17.50;30.46;103272.38;5012223;28;20042;-77
2022/01/13 08:46:38;;;;;;;7.40;5.07;;;;;;;17.49;30.49;103278.69;5013469;28;20045;-77
2022/01/13 08:49:06;;;;;;;8.05;4.63;;;;;;;17.49;30.37;103286.72;4995583;28;20049;-76
2022/01/13 08:51:33;;;;;;;8.15;5.43;;;;;;;17.48;29.84;103276.94;5012364;28;20054;-76
2022/01/13 08:54:01;;;;;;;8.60;5.63;;;;;;;17.48;29.86;103285.84;5013854;28;20398;-76
2022/01/13 08:56:28;;;;;;;8.65;4.78;;;;;;;17.46;29.94;103282.38;5013442;28;20050;-76
2022/01/13 08:58:56;;;;;;;7.95;5.65;;;;;;;17.46;29.78;103282.38;5013517;28;20049;-76
2022/01/13 09:01:23;;;;;;;8.68;5.65;;;;;;;17.46;29.76;103289.50;5013471;28;20041;-77
2022/01/13 09:03:53;;;;;;;9.02;5.72;;;;;;;17.47;29.82;103288.59;5013240;28;20057;-79
2022/01/13 09:06:21;;;;;;;8.93;5.78;;;;;;;17.46;29.58;103297.53;5013623;28;20054;-77
2022/01/13 09:08:49;;;;;;;8.98;5.88;;;;;;;17.45;29.47;103301.16;5013184;28;20042;-77
2022/01/13 09:11:16;;;;;;;13.02;6.15;;;;;;;17.45;29.56;103296.66;5013438;28;20050;-76
2022/01/13 09:13:44;;;;;;;8.23;5.55;;;;;;;17.44;29.94;103294.06;5012934;28;20413;-77
2022/01/13 09:16:16;;;;;;;12.15;6.10;;;;;;;17.45;30.24;103306.50;5012810;28;20053;-76
2022/01/13 09:18:58;;;;;;;8.65;5.35;;;;;;;17.47;30.41;103320.72;5012972;28;20053;-77
2022/01/13 09:21:28;;;;;;;11.50;6.15;;;;;;;17.45;29.93;103314.53;5011764;28;20061;-76
2022/01/13 09:23:56;;;;;;;11.10;5.82;;;;;;;17.46;30.04;103313.59;5013306;28;20042;-76
2022/01/13 09:26:24;;;;;;;12.05;6.15;;;;;;;17.46;30.47;103313.59;5013289;28;20050;-75
2022/01/13 09:28:52;;;;;;;8.68;5.45;;;;;;;17.47;30.85;103318.06;5013120;28;20053;-76
2022/01/13 09:31:20;;;;;;;7.38;5.32;;;;;;;17.49;31.47;103318.84;5012749;28;20052;-76
2022/01/13 09:33:47;;;;;;;7.18;5.05;;;;;;;17.48;31.59;103322.47;5012542;28;20045;-76
2022/01/13 09:36:15;;;;;;;11.13;5.55;;;;;;;17.47;31.34;103321.59;5011597;28;20489;-76
2022/01/13 09:38:49;;;;;;;10.18;5.95;;;;;;;17.48;31.67;103323.34;5011869;28;20056;-76
2022/01/13 09:41:19;;;;;;;10.57;5.82;;;;;;;17.49;31.77;103316.19;5012775;28;20049;-77
2022/01/13 09:43:47;;;;;;;7.93;5.25;;;;;;;17.50;31.95;103325.94;5013429;28;20050;-77
2022/01/13 09:46:16;;;;;;;9.48;6.07;;;;;;;17.52;32.00;103316.06;5015833;28;20057;-76
2022/01/13 09:48:44;;;;;;;7.97;5.20;;;;;;;17.52;32.29;103318.75;5016454;28;20046;-76
2022/01/13 09:51:12;;;;;;;8.38;5.32;;;;;;;17.51;32.36;103312.53;5016491;28;20061;-77
2022/01/13 09:53:39;;;;;;;5.68;4.70;;;;;;;17.53;32.68;103317.81;5014985;28;20046;-77
2022/01/13 09:56:07;;;;;;;7.15;4.93;;;;;;;17.53;32.80;103320.47;5015284;28;20053;-77
2022/01/13 09:58:34;;;;;;;6.68;4.70;;;;;;;17.54;32.93;103319.53;5016431;28;20049;-77
2022/01/13 10:01:02;;;;;;;8.90;5.60;;;;;;;17.53;32.97;103313.31;5016383;28;20046;-76
2022/01/13 10:03:33;;;;;;;7.13;5.07;;;;;;;17.54;32.81;103316.84;5016557;28;20394;-77
2022/01/13 10:06:07;;;;;;;6.15;4.60;;;;;;;17.54;33.06;103322.22;5016356;28;20046;-77
2022/01/13 10:08:51;;;;;;;9.05;5.20;;;;;;;17.54;32.97;103316.84;5016143;28;20490;-77
2022/01/13 10:11:23;;;;;;;8.13;4.82;;;;;;;17.54;33.02;103314.19;5014893;28;20057;-75
2022/01/13 10:16:50;;;;;;;8.13;4.68;;;;;;;17.54;33.09;103311.50;5015815;28;20065;-76
2022/01/13 10:19:42;;;;;;;7.03;4.97;;;;;;;17.54;33.40;103307.03;5015950;28;20038;-76
2022/01/13 10:22:14;;;;;;;8.20;4.88;;;;;;;17.54;33.55;103315.09;5014607;28;20071;-76
2022/01/13 10:24:47;;;;;;;7.05;5.10;;;;;;;17.55;33.68;103305.25;5016219;28;20053;-78
2022/01/13 10:27:21;;;;;;;7.00;4.40;;;;;;;17.56;33.75;103315.00;5015904;28;20050;-75
2022/01/13 10:29:54;;;;;;;6.85;4.45;;;;;;;17.55;33.47;103305.25;5015473;28;20049;-77
2022/01/13 10:32:33;;;;;;;7.88;5.00;;;;;;;17.54;33.69;103304.38;5016068;28;20409;-76
2022/01/13 10:35:10;;;;;;;7.57;4.57;;;;;;;17.55;33.68;103299.88;5015780;28;20046;-77
2022/01/13 10:37:44;;;;;;;5.78;4.95;;;;;;;17.55;33.75;103295.38;5014418;28;20041;-78
2022/01/13 10:40:16;;;;;;;7.22;4.50;;;;;;;17.55;33.93;103297.19;5014320;28;20042;-77
2022/01/13 10:45:30;;;;;;;7.63;4.97;;;;;;;17.55;33.75;103286.50;5015303;28;20045;-77
2022/01/13 10:48:19;;;;;;;6.93;4.75;;;;;;;17.56;33.95;103285.53;5015959;28;20061;-82
2022/01/13 10:50:52;;;;;;;6.40;4.70;;;;;;;17.57;33.79;103289.09;5013914;28;20053;-77
2022/01/13 10:53:24;;;;;;;7.78;4.78;;;;;;;17.58;33.73;103290.84;5014308;28;20049;-77
2022/01/13 10:55:58;;;;;;;9.18;5.97;;;;;;;17.58;33.74;103288.16;5014969;28;20453;-78
2022/01/13 10:58:29;;;;;;;6.72;4.97;;;;;;;17.59;33.71;103292.59;5014995;28;20050;-77
2022/01/13 11:00:57;;;;;;;6.97;5.40;;;;;;;17.60;33.94;103292.53;5013910;28;20147;-77
2022/01/13 11:03:29;;;;;;;5.90;5.10;;;;;;;17.62;33.76;103297.81;5015439;28;20475;-75
2022/01/13 11:06:00;;;;;;;6.82;5.10;;;;;;;17.61;34.03;103291.59;5014940;28;20156;-76
2022/01/13 11:08:41;;;;;;;7.85;4.72;;;;;;;17.61;34.22;103288.91;4997904;28;20050;-77
2022/01/13 11:11:27;;;;;;;7.88;5.35;;;;;;;17.61;34.20;103288.03;5014909;28;20482;-77
2022/01/13 11:14:10;;;;;;;9.52;5.30;;;;;;;17.61;34.15;103280.00;5015108;28;20050;-76
2022/01/13 11:16:38;;;;;;;9.65;5.82;;;;;;;17.61;34.11;103277.31;5014914;28;20410;-75
2022/01/13 11:19:07;;;;;;;8.73;5.40;;;;;;;17.60;34.42;103276.47;5014890;28;20478;-75
2022/01/13 11:21:37;;;;;;;7.30;5.55;;;;;;;17.62;34.30;103263.00;5014415;28;20371;-76
2022/01/13 11:24:07;;;;;;;6.18;4.90;;;;;;;17.63;34.37;103262.09;5014883;28;20046;-75
2022/01/13 11:26:35;;;;;;;6.78;5.18;;;;;;;17.62;34.20;103255.81;5014511;28;20508;-75
2022/01/13 11:29:04;;;;;;;8.55;5.32;;;;;;;17.63;34.37;103248.69;5014383;28;20041;-76
2022/01/13 11:31:31;;;;;;;9.20;5.80;;;;;;;17.62;34.39;103241.56;5014457;28;20470;-76
2022/01/13 11:34:00;;;;;;;7.47;5.28;;;;;;;17.61;34.34;103232.66;5014500;28;20516;-75
2022/01/13 11:36:28;;;;;;;8.00;5.68;;;;;;;17.63;34.37;103225.44;5014740;28;20046;-75
2022/01/13 11:38:58;;;;;;;8.30;6.10;;;;;;;17.64;34.48;103229.00;5014187;28;20046;-75
2022/01/13 11:41:27;;;;;;;7.70;5.60;;;;;;;17.64;34.47;103219.16;5014052;28;20057;-75
2022/01/13 11:44:11;;;;;;;6.35;4.88;;;;;;;17.63;34.46;103217.41;5014268;28;20402;-75
2022/01/13 11:46:48;;;;;;;9.38;5.90;;;;;;;17.62;34.42;103218.31;5014558;28;20054;-75
2022/01/13 11:49:20;;;;;;;6.57;5.85;;;;;;;17.62;34.50;103218.31;5014323;28;20061;-75
2022/01/13 11:51:56;;;;;;;9.38;6.47;;;;;;;17.61;34.36;103211.22;5013255;28;20046;-75
2022/01/13 11:54:35;;;;;;;8.93;5.78;;;;;;;17.63;34.69;103209.38;5014267;28;20049;-76
2022/01/13 11:57:25;;;;;;;7.03;5.25;;;;;;;17.64;34.33;103208.44;5012289;28;20414;-75
2022/01/13 11:59:55;;;;;;;7.18;5.90;;;;;;;17.65;34.33;103217.34;5014271;28;20430;-76
2022/01/13 12:02:29;;;;;;;10.20;5.65;;;;;;;17.66;34.24;103219.97;5014411;28;20068;-76
2022/01/13 12:05:06;;;;;;;9.02;6.22;;;;;;;17.68;34.31;103227.94;5012897;28;20060;-76
2022/01/13 12:07:42;;;;;;;11.52;5.95;;;;;;;17.70;34.50;103229.63;4996024;28;20490;-75
2022/01/13 12:10:31;;;;;;;9.48;6.03;;;;;;;17.70;34.60;103228.72;5014203;28;20049;-75
2022/01/13 12:12:59;;;;;;;7.80;5.72;;;;;;;17.70;34.76;103223.38;5013470;28;20046;-75